Terminal Aerodrome Forecast
Issued by NWS

Home | Current Version | Previous Version | Text Only | Print | Product List | Glossary On
Versions: 1 2 3 4 5 6 7 8 9 10 11 12 13 14 15 16 17 18 19 20 21 22 23
000
FTUS43 KLSX 241700
TAFSUS
TAF
KSUS 241724Z 2418/2518 15012G18KT P6SM VCSH BKN060
     FM250400 14009KT 6SM -SHRA VCTS OVC020CB
     FM250900 15008KT P6SM -SHRA OVC009=

USA.gov is the U.S. government's official web portal to all federal, state and local government web resources and services.